Sarbogard, Hungary
Current Conditions -  °F | °C
As of 5:00 AM on Wednesday 26 Nov 2014 (Local Time) from LHBP Reporting Station
Light Fog Light Fog  
Wind Chill: 36°   Ceiling: 100
Heat Index: 36°   Visibility: 1.2mi
Dew Point: 36°   Wind: 2mph
Humidity: 100%   Direction: NA
Pressure: 30.3"   Gusts: NA
Location:  46.89°N, 18.63°E
Report Text: LHBP 260300Z VRB02KT 2000 R13L/1000N BR BCFG BKN001 BKN039 02/02 Q1026 NOSIG
Loading
Personal Weather Stations






























Interactive Weather Map New forecast layout! Learn more

10-Day Weather Forecast

Advertisements
Track Severe Weather on mobile